Time;durP1;ratioP1;P1;durP2;ratioP2;P2;SDS_P1;SDS_P2;PMS_P1;PMS_P2;Temp;Humidity;BMP_temperature;BMP_pressure;BME280_temperature;BME280_humidity;BME280_pressure;Samples;Min_cycle;Max_cycle;Signal;HPM_P1;HPM_P2
2023/05/17 00:02:09;;;;;;;27.33;7.50;;;;;;;;;;5047914;28;20044;-61
2023/05/17 00:04:35;;;;;;;29.53;8.47;;;;;;;;;;5047606;28;20537;-61
2023/05/17 00:07:01;;;;;;;30.77;8.07;;;;;;;;;;5047908;28;20053;-61
2023/05/17 00:09:27;;;;;;;31.20;8.63;;;;;;;;;;5047222;28;20084;-61
2023/05/17 00:11:53;;;;;;;25.13;7.80;;;;;;;;;;5048057;28;20053;-61
2023/05/17 00:14:19;;;;;;;25.40;7.30;;;;;;;;;;5047359;28;20130;-61
2023/05/17 00:16:46;;;;;;;25.83;7.20;;;;;;;;;;5047607;28;20056;-61
2023/05/17 00:19:12;;;;;;;20.43;6.90;;;;;;;;;;5047910;28;20075;-61
2023/05/17 00:21:38;;;;;;;23.73;7.33;;;;;;;;;;5051504;28;20586;-61
2023/05/17 00:24:04;;;;;;;18.40;6.97;;;;;;;;;;5051661;28;20059;-61
2023/05/17 00:26:30;;;;;;;33.33;8.50;;;;;;;;;;5050686;28;20045;-61
2023/05/17 00:28:56;;;;;;;28.70;7.07;;;;;;;;;;5051486;28;20044;-62
2023/05/17 00:31:22;;;;;;;29.90;8.93;;;;;;;;;;5050786;28;20491;-61
2023/05/17 00:33:48;;;;;;;23.27;5.17;;;;;;;;;;5051142;28;20412;-61
2023/05/17 00:36:14;;;;;;;23.00;6.37;;;;;;;;;;5051090;28;20052;-61
2023/05/17 00:38:40;;;;;;;22.47;5.93;;;;;;;;;;5050809;28;20052;-61
2023/05/17 00:41:06;;;;;;;28.73;5.77;;;;;;;;;;5051392;28;20053;-61
2023/05/17 00:43:32;;;;;;;25.03;6.40;;;;;;;;;;5050880;28;20049;-61
2023/05/17 00:45:58;;;;;;;23.03;5.70;;;;;;;;;;5050466;28;20049;-61
2023/05/17 00:48:25;;;;;;;27.30;6.33;;;;;;;;;;5051294;28;20076;-62
2023/05/17 00:50:51;;;;;;;25.33;5.93;;;;;;;;;;5051003;28;20518;-61
2023/05/17 00:53:18;;;;;;;27.00;7.50;;;;;;;;;;5051008;28;20402;-61
2023/05/17 00:55:44;;;;;;;21.20;5.33;;;;;;;;;;5050911;28;20049;-61
2023/05/17 00:58:14;;;;;;;27.50;5.67;;;;;;;;;;5050967;28;20124;-61
2023/05/17 01:00:40;;;;;;;24.47;6.40;;;;;;;;;;5049991;28;20109;-61
2023/05/17 01:03:06;;;;;;;33.57;6.50;;;;;;;;;;5050771;28;20052;-60
2023/05/17 01:05:32;;;;;;;25.77;5.60;;;;;;;;;;5050880;28;20495;-61
2023/05/17 01:07:58;;;;;;;27.33;5.10;;;;;;;;;;5051540;28;20090;-61
2023/05/17 01:10:32;;;;;;;28.97;5.63;;;;;;;;;;5050684;28;20731;-61
2023/05/17 01:13:15;;;;;;;30.33;5.88;;;;;;;;;;5050623;28;20041;-61
2023/05/17 01:15:45;;;;;;;29.52;5.72;;;;;;;;;;5050523;28;20720;-61
2023/05/17 01:18:23;;;;;;;19.77;4.67;;;;;;;;;;5050732;28;20041;-61
2023/05/17 01:20:50;;;;;;;26.07;5.63;;;;;;;;;;5050389;28;20053;-61
2023/05/17 01:23:25;;;;;;;24.17;5.20;;;;;;;;;;5050590;28;20674;-60
2023/05/17 01:25:58;;;;;;;22.27;5.57;;;;;;;;;;5050082;28;20127;-61
2023/05/17 01:28:26;;;;;;;26.05;5.50;;;;;;;;;;5050304;28;20438;-60
2023/05/17 01:30:52;;;;;;;31.70;6.07;;;;;;;;;;5050515;28;20139;-61
2023/05/17 01:33:19;;;;;;;31.87;5.17;;;;;;;;;;5050406;28;20063;-61
2023/05/17 01:35:45;;;;;;;27.03;5.23;;;;;;;;;;5050005;28;20091;-60
2023/05/17 01:38:11;;;;;;;35.60;5.63;;;;;;;;;;5050273;28;20115;-61
2023/05/17 01:40:40;;;;;;;24.53;4.77;;;;;;;;;;5050166;28;20487;-60
2023/05/17 01:43:17;;;;;;;32.70;6.70;;;;;;;;;;5050371;28;20053;-61
2023/05/17 01:45:46;;;;;;;35.47;6.77;;;;;;;;;;5050450;28;20057;-60
2023/05/17 01:48:23;;;;;;;30.57;5.27;;;;;;;;;;5050069;28;20415;-61
2023/05/17 01:50:50;;;;;;;39.97;6.47;;;;;;;;;;5049873;28;20507;-61
2023/05/17 01:53:45;;;;;;;37.40;9.47;;;;;;;;;;5050128;28;20041;-61
2023/05/17 01:56:15;;;;;;;32.03;6.40;;;;;;;;;;5045109;28;20144;-61
2023/05/17 01:58:45;;;;;;;30.10;5.20;;;;;;;;;;5049696;28;20446;-62
2023/05/17 02:01:12;;;;;;;26.93;5.90;;;;;;;;;;5048363;28;20052;-60
2023/05/17 02:03:38;;;;;;;36.03;6.83;;;;;;;;;;5049325;28;20560;-61
2023/05/17 02:06:04;;;;;;;25.70;6.20;;;;;;;;;;5050192;28;20073;-59
2023/05/17 02:08:30;;;;;;;25.17;5.97;;;;;;;;;;5049780;28;20053;-61
2023/05/17 02:10:56;;;;;;;28.27;5.93;;;;;;;;;;5050080;28;20041;-61
2023/05/17 02:13:22;;;;;;;30.90;6.67;;;;;;;;;;5049413;28;20049;-61
2023/05/17 02:15:48;;;;;;;33.13;6.27;;;;;;;;;;5050145;28;20363;-61
2023/05/17 02:18:15;;;;;;;31.33;4.97;;;;;;;;;;5049773;28;20580;-61
2023/05/17 02:20:41;;;;;;;30.93;5.43;;;;;;;;;;5050296;28;20075;-61
2023/05/17 02:23:07;;;;;;;28.97;6.10;;;;;;;;;;5049425;28;20045;-61
2023/05/17 02:25:33;;;;;;;29.63;6.23;;;;;;;;;;5049117;28;20456;-60
2023/05/17 02:27:59;;;;;;;33.13;5.33;;;;;;;;;;5049669;28;20415;-60
2023/05/17 02:30:25;;;;;;;34.90;7.63;;;;;;;;;;5049636;28;20045;-61
2023/05/17 02:32:51;;;;;;;27.57;6.97;;;;;;;;;;5048993;28;20052;-61
2023/05/17 02:35:17;;;;;;;27.77;5.23;;;;;;;;;;5049179;28;20545;-61
2023/05/17 02:37:44;;;;;;;28.60;5.53;;;;;;;;;;5049555;28;20048;-61
2023/05/17 02:40:10;;;;;;;35.37;6.70;;;;;;;;;;5049218;28;20087;-62
2023/05/17 02:42:36;;;;;;;42.17;9.17;;;;;;;;;;5048566;28;20059;-61
2023/05/17 02:45:03;;;;;;;25.77;6.67;;;;;;;;;;5049385;28;20110;-61
2023/05/17 02:47:29;;;;;;;32.10;5.30;;;;;;;;;;5048412;28;20043;-61
2023/05/17 02:49:55;;;;;;;28.53;6.23;;;;;;;;;;5048937;28;20087;-61
2023/05/17 02:52:21;;;;;;;28.57;6.97;;;;;;;;;;5048509;28;20043;-60
2023/05/17 02:54:47;;;;;;;36.53;6.73;;;;;;;;;;5049440;28;20049;-61
2023/05/17 02:57:13;;;;;;;32.97;6.70;;;;;;;;;;5049679;28;20052;-60
2023/05/17 02:59:39;;;;;;;34.07;6.93;;;;;;;;;;5049790;28;20533;-61
2023/05/17 03:02:05;;;;;;;29.80;6.23;;;;;;;;;;5049834;28;20389;-61
2023/05/17 03:04:32;;;;;;;37.97;6.97;;;;;;;;;;5049753;28;20075;-61
2023/05/17 03:06:58;;;;;;;30.00;5.83;;;;;;;;;;5049331;28;20048;-60
2023/05/17 03:09:24;;;;;;;28.27;5.90;;;;;;;;;;5049920;28;20048;-61
2023/05/17 03:11:50;;;;;;;33.00;5.53;;;;;;;;;;5049243;28;20037;-60
2023/05/17 03:14:17;;;;;;;23.50;4.97;;;;;;;;;;5048991;28;20101;-61
2023/05/17 03:16:43;;;;;;;28.83;6.17;;;;;;;;;;5049704;28;20059;-60
2023/05/17 03:19:09;;;;;;;34.20;6.33;;;;;;;;;;5048816;28;20472;-60
2023/05/17 03:21:35;;;;;;;37.37;5.20;;;;;;;;;;5048732;28;20048;-61
2023/05/17 03:24:01;;;;;;;26.57;5.30;;;;;;;;;;5048786;28;20091;-61
2023/05/17 03:26:27;;;;;;;28.30;5.07;;;;;;;;;;5048918;28;20467;-61
2023/05/17 03:28:53;;;;;;;34.90;6.50;;;;;;;;;;5049520;28;20106;-61
2023/05/17 03:31:19;;;;;;;25.00;5.57;;;;;;;;;;5048647;28;20092;-61
2023/05/17 03:33:45;;;;;;;32.57;6.20;;;;;;;;;;5049252;28;20128;-60
2023/05/17 03:36:11;;;;;;;32.87;6.33;;;;;;;;;;5049253;28;20127;-61
2023/05/17 03:38:37;;;;;;;38.10;6.90;;;;;;;;;;5049754;28;20095;-60
2023/05/17 03:41:03;;;;;;;24.10;6.10;;;;;;;;;;5049214;28;20136;-60
2023/05/17 03:43:29;;;;;;;32.73;5.90;;;;;;;;;;5048792;28;20063;-60
2023/05/17 03:45:55;;;;;;;35.27;7.23;;;;;;;;;;5049279;28;20071;-61
2023/05/17 03:48:21;;;;;;;32.47;6.20;;;;;;;;;;5049133;28;20045;-61
2023/05/17 03:50:47;;;;;;;28.23;5.57;;;;;;;;;;5049122;28;20454;-60
2023/05/17 03:53:13;;;;;;;35.23;4.90;;;;;;;;;;5049254;28;20049;-60
2023/05/17 03:55:39;;;;;;;24.07;5.63;;;;;;;;;;5051551;28;20495;-60
2023/05/17 03:58:06;;;;;;;28.97;5.17;;;;;;;;;;5053236;28;20047;-61
2023/05/17 04:00:32;;;;;;;23.27;6.00;;;;;;;;;;5053064;28;20506;-61
2023/05/17 04:02:58;;;;;;;26.20;6.10;;;;;;;;;;5051177;28;20041;-61
2023/05/17 04:05:24;;;;;;;31.93;6.23;;;;;;;;;;5052886;28;20080;-61
2023/05/17 04:07:50;;;;;;;27.20;4.97;;;;;;;;;;5053072;28;20080;-60
2023/05/17 04:10:16;;;;;;;31.13;6.97;;;;;;;;;;5052743;28;20045;-60
2023/05/17 04:12:42;;;;;;;30.27;7.73;;;;;;;;;;5052909;28;20095;-61
2023/05/17 04:15:08;;;;;;;35.97;6.43;;;;;;;;;;5053113;28;20049;-61
2023/05/17 04:17:35;;;;;;;23.13;5.00;;;;;;;;;;5052301;28;20115;-61
2023/05/17 04:20:01;;;;;;;25.17;4.93;;;;;;;;;;5052719;28;20053;-61
2023/05/17 04:22:27;;;;;;;30.30;6.23;;;;;;;;;;5052373;28;20063;-60
2023/05/17 04:24:53;;;;;;;30.80;6.47;;;;;;;;;;5052770;28;20120;-61
2023/05/17 04:27:20;;;;;;;26.20;6.60;;;;;;;;;;5051875;28;20483;-61
2023/05/17 04:29:46;;;;;;;19.03;5.07;;;;;;;;;;5052596;28;20566;-60
2023/05/17 04:32:13;;;;;;;29.70;6.17;;;;;;;;;;5052139;28;20153;-61
2023/05/17 04:34:39;;;;;;;24.67;6.23;;;;;;;;;;5052398;28;20045;-61
2023/05/17 04:37:06;;;;;;;25.87;5.33;;;;;;;;;;5052153;28;20056;-61
2023/05/17 04:39:32;;;;;;;34.20;6.67;;;;;;;;;;5052475;28;20049;-61
2023/05/17 04:41:58;;;;;;;36.00;6.70;;;;;;;;;;5052220;28;20428;-61
2023/05/17 04:44:24;;;;;;;29.73;5.43;;;;;;;;;;5065788;28;20036;-61
2023/05/17 04:46:50;;;;;;;36.73;7.00;;;;;;;;;;5072252;28;20045;-61
2023/05/17 04:49:17;;;;;;;23.93;5.80;;;;;;;;;;5072239;28;20051;-61
2023/05/17 04:51:43;;;;;;;50.10;6.90;;;;;;;;;;5072000;28;20052;-61
2023/05/17 04:54:09;;;;;;;27.47;5.83;;;;;;;;;;5071948;28;20052;-61
2023/05/17 04:56:36;;;;;;;35.97;6.13;;;;;;;;;;5072066;28;20041;-61
2023/05/17 04:59:02;;;;;;;33.17;5.97;;;;;;;;;;5067545;28;20490;-61
2023/05/17 05:01:29;;;;;;;28.70;5.20;;;;;;;;;;5059994;28;20041;-61
2023/05/17 05:03:56;;;;;;;26.83;5.73;;;;;;;;;;5059764;28;20151;-61
2023/05/17 05:06:22;;;;;;;25.97;4.67;;;;;;;;;;5062076;28;20044;-61
2023/05/17 05:08:48;;;;;;;23.27;4.60;;;;;;;;;;5060975;28;20047;-61
2023/05/17 05:11:15;;;;;;;27.27;5.20;;;;;;;;;;5060913;28;20408;-61
2023/05/17 05:13:41;;;;;;;22.43;4.43;;;;;;;;;;5066707;28;20048;-61
2023/05/17 05:16:07;;;;;;;26.07;5.17;;;;;;;;;;5065682;28;20479;-61
2023/05/17 05:18:33;;;;;;;24.10;4.13;;;;;;;;;;5061312;28;20410;-61
2023/05/17 05:20:59;;;;;;;23.97;4.40;;;;;;;;;;5059925;28;20048;-61
2023/05/17 05:23:26;;;;;;;23.37;5.33;;;;;;;;;;5059304;28;20091;-61
2023/05/17 05:25:52;;;;;;;25.50;4.87;;;;;;;;;;5060615;28;20068;-61
2023/05/17 05:28:18;;;;;;;19.03;4.47;;;;;;;;;;5059464;28;20053;-61
2023/05/17 05:30:44;;;;;;;15.50;3.83;;;;;;;;;;5060210;28;20041;-62
2023/05/17 05:33:10;;;;;;;24.97;3.60;;;;;;;;;;5061308;28;20632;-61
2023/05/17 05:35:36;;;;;;;21.03;3.57;;;;;;;;;;5061716;28;20052;-62
2023/05/17 05:38:02;;;;;;;21.97;3.47;;;;;;;;;;5058485;28;20044;-60
2023/05/17 05:40:28;;;;;;;15.13;4.93;;;;;;;;;;5059532;28;20056;-60
2023/05/17 05:42:55;;;;;;;10.10;2.80;;;;;;;;;;5071022;28;20098;-61
2023/05/17 05:45:21;;;;;;;18.03;3.43;;;;;;;;;;5070889;28;20052;-60
2023/05/17 05:47:47;;;;;;;15.10;2.70;;;;;;;;;;5065511;28;20116;-62
2023/05/17 05:50:13;;;;;;;13.57;2.83;;;;;;;;;;5050242;28;20057;-61
2023/05/17 05:52:39;;;;;;;14.03;2.57;;;;;;;;;;5051204;28;20237;-60
2023/05/17 05:55:05;;;;;;;13.67;3.13;;;;;;;;;;5051814;28;20037;-61
2023/05/17 05:57:31;;;;;;;12.37;2.20;;;;;;;;;;5056720;28;20503;-61
2023/05/17 05:59:57;;;;;;;13.23;2.33;;;;;;;;;;5051078;28;20637;-62
2023/05/17 06:02:24;;;;;;;16.03;2.73;;;;;;;;;;5050677;28;20049;-62
2023/05/17 06:04:50;;;;;;;12.50;3.80;;;;;;;;;;5050479;28;20051;-62
2023/05/17 06:07:16;;;;;;;18.40;2.70;;;;;;;;;;5050113;28;20169;-60
2023/05/17 06:09:42;;;;;;;14.77;2.73;;;;;;;;;;5049746;28;20045;-61
2023/05/17 06:12:08;;;;;;;13.60;2.90;;;;;;;;;;5050135;28;20115;-62
2023/05/17 06:14:36;;;;;;;9.30;2.03;;;;;;;;;;5048347;28;20041;-61
2023/05/17 06:17:02;;;;;;;15.53;2.47;;;;;;;;;;5046875;28;20491;-60
2023/05/17 06:19:28;;;;;;;15.17;2.23;;;;;;;;;;5048117;28;20823;-61
2023/05/17 06:21:54;;;;;;;13.27;2.30;;;;;;;;;;5047676;28;20037;-61
2023/05/17 06:24:20;;;;;;;15.63;2.17;;;;;;;;;;5047861;28;20124;-60
2023/05/17 06:26:47;;;;;;;9.50;1.90;;;;;;;;;;5048350;28;20050;-60
2023/05/17 06:29:13;;;;;;;14.07;2.00;;;;;;;;;;5049644;28;20041;-61
2023/05/17 06:31:39;;;;;;;8.43;2.10;;;;;;;;;;5049799;28;20154;-61
2023/05/17 06:34:05;;;;;;;7.63;1.80;;;;;;;;;;5050593;28;20084;-61
2023/05/17 06:36:31;;;;;;;9.60;1.67;;;;;;;;;;5049961;28;20048;-61
2023/05/17 06:38:57;;;;;;;10.30;2.30;;;;;;;;;;5050439;28;20084;-61
2023/05/17 06:41:23;;;;;;;9.23;1.93;;;;;;;;;;5049676;28;20041;-61
2023/05/17 06:43:50;;;;;;;13.80;4.03;;;;;;;;;;5050236;28;20596;-61
2023/05/17 06:46:16;;;;;;;9.17;2.17;;;;;;;;;;5049891;28;20049;-61
2023/05/17 06:48:42;;;;;;;9.67;1.93;;;;;;;;;;5049389;28;20057;-61
2023/05/17 06:51:08;;;;;;;7.83;1.47;;;;;;;;;;5049784;28;20049;-61
2023/05/17 06:53:34;;;;;;;17.53;2.47;;;;;;;;;;5050135;28;20053;-61
2023/05/17 06:56:00;;;;;;;9.47;1.70;;;;;;;;;;5049888;28;20045;-62
2023/05/17 06:58:26;;;;;;;13.20;2.20;;;;;;;;;;5049367;28;20454;-62
2023/05/17 07:00:52;;;;;;;10.73;1.97;;;;;;;;;;5049392;28;20072;-62
2023/05/17 07:03:19;;;;;;;8.20;1.70;;;;;;;;;;5049641;28;20052;-62
2023/05/17 07:05:45;;;;;;;16.43;2.63;;;;;;;;;;5049286;28;20526;-62
2023/05/17 07:08:11;;;;;;;11.77;1.83;;;;;;;;;;5049739;28;20056;-62
2023/05/17 07:10:37;;;;;;;12.27;2.07;;;;;;;;;;5049316;28;20606;-62
2023/05/17 07:13:03;;;;;;;13.83;2.97;;;;;;;;;;5049069;28;20855;-60
2023/05/17 07:15:29;;;;;;;11.67;1.87;;;;;;;;;;5049181;28;20097;-60
2023/05/17 07:17:55;;;;;;;10.00;2.20;;;;;;;;;;5049812;28;20076;-61
2023/05/17 07:20:22;;;;;;;12.93;2.20;;;;;;;;;;5049005;28;20545;-60
2023/05/17 07:22:48;;;;;;;14.13;2.13;;;;;;;;;;5048926;28;20045;-60
2023/05/17 07:25:14;;;;;;;10.17;1.90;;;;;;;;;;5049180;28;20503;-61
2023/05/17 07:27:40;;;;;;;12.93;2.63;;;;;;;;;;5049645;28;20163;-61
2023/05/17 07:30:07;;;;;;;15.50;2.57;;;;;;;;;;5048456;28;20052;-61
2023/05/17 07:32:33;;;;;;;15.27;2.63;;;;;;;;;;5051530;28;20044;-61
2023/05/17 07:35:01;;;;;;;8.90;2.17;;;;;;;;;;5058491;28;20444;-61
2023/05/17 07:37:27;;;;;;;17.20;2.60;;;;;;;;;;5056727;28;20045;-60
2023/05/17 07:39:53;;;;;;;13.23;2.43;;;;;;;;;;5058657;28;20418;-61
2023/05/17 07:42:19;;;;;;;12.30;2.47;;;;;;;;;;5058841;28;20078;-61
2023/05/17 07:44:47;;;;;;;10.67;2.10;;;;;;;;;;5058362;28;20052;-61
2023/05/17 07:47:13;;;;;;;13.43;2.67;;;;;;;;;;5061071;28;20056;-61
2023/05/17 07:49:39;;;;;;;9.80;2.10;;;;;;;;;;5068933;28;20063;-61
2023/05/17 07:52:05;;;;;;;7.20;1.90;;;;;;;;;;5068282;28;20045;-61
2023/05/17 07:54:32;;;;;;;13.53;3.53;;;;;;;;;;5068634;28;20045;-61
2023/05/17 07:56:58;;;;;;;7.37;1.70;;;;;;;;;;5069134;28;20051;-61
2023/05/17 07:59:24;;;;;;;8.63;2.37;;;;;;;;;;5067462;28;20843;-61
2023/05/17 08:01:51;;;;;;;6.13;2.20;;;;;;;;;;5069193;28;20052;-61
2023/05/17 08:04:20;;;;;;;9.20;2.17;;;;;;;;;;5068319;28;20048;-61
2023/05/17 08:06:47;;;;;;;9.53;1.63;;;;;;;;;;5068382;28;20047;-60
2023/05/17 08:09:15;;;;;;;11.30;2.33;;;;;;;;;;5068724;28;20128;-60
2023/05/17 08:11:44;;;;;;;15.20;2.60;;;;;;;;;;5067682;28;20080;-60
2023/05/17 08:14:14;;;;;;;12.67;2.40;;;;;;;;;;5047488;28;20103;-61
2023/05/17 08:16:41;;;;;;;11.90;2.73;;;;;;;;;;5047608;28;20132;-60
2023/05/17 08:19:07;;;;;;;7.23;2.23;;;;;;;;;;5048328;28;20475;-60
2023/05/17 08:21:33;;;;;;;6.80;1.90;;;;;;;;;;5047920;28;20135;-60
2023/05/17 08:23:59;;;;;;;11.57;2.57;;;;;;;;;;5048152;28;20041;-60
2023/05/17 08:26:25;;;;;;;8.00;2.10;;;;;;;;;;5048213;28;20099;-61
2023/05/17 08:28:51;;;;;;;11.03;2.67;;;;;;;;;;5047691;28;20044;-61
2023/05/17 08:31:17;;;;;;;9.50;2.20;;;;;;;;;;5048189;28;20399;-61
2023/05/17 08:33:43;;;;;;;10.53;2.20;;;;;;;;;;5048314;28;20056;-59
2023/05/17 08:36:10;;;;;;;11.37;2.23;;;;;;;;;;5047617;28;20048;-60
2023/05/17 08:38:36;;;;;;;9.40;2.63;;;;;;;;;;5048097;28;20045;-61
2023/05/17 08:41:02;;;;;;;13.30;2.50;;;;;;;;;;5054940;28;20037;-62
2023/05/17 08:43:28;;;;;;;15.47;2.50;;;;;;;;;;5051686;28;20389;-61
2023/05/17 08:45:56;;;;;;;7.17;2.00;;;;;;;;;;5051832;28;20551;-60
2023/05/17 08:48:23;;;;;;;11.70;2.70;;;;;;;;;;5052422;28;20053;-60
2023/05/17 08:50:53;;;;;;;11.73;2.20;;;;;;;;;;5052379;28;20423;-59
2023/05/17 08:53:19;;;;;;;11.97;2.27;;;;;;;;;;5052151;28;20079;-60
2023/05/17 08:55:48;;;;;;;9.70;2.20;;;;;;;;;;5052157;28;20045;-60
2023/05/17 08:58:18;;;;;;;10.40;2.80;;;;;;;;;;5052258;28;20095;-60
2023/05/17 09:00:45;;;;;;;12.10;2.40;;;;;;;;;;5051770;28;20507;-60
2023/05/17 09:03:15;;;;;;;10.67;2.30;;;;;;;;;;5052005;28;20126;-60
2023/05/17 09:05:42;;;;;;;10.27;3.20;;;;;;;;;;5052065;28;20132;-60
2023/05/17 09:08:12;;;;;;;9.47;2.83;;;;;;;;;;5051966;28;20060;-60
2023/05/17 09:10:38;;;;;;;8.37;2.47;;;;;;;;;;5051822;28;20080;-60
2023/05/17 09:13:04;;;;;;;12.43;2.47;;;;;;;;;;5051814;28;20495;-61
2023/05/17 09:15:33;;;;;;;10.93;2.93;;;;;;;;;;5051938;28;20040;-60
2023/05/17 09:17:59;;;;;;;8.20;2.13;;;;;;;;;;5053939;28;20102;-60
2023/05/17 09:20:35;;;;;;;9.73;2.30;;;;;;;;;;5051802;28;20047;-60
2023/05/17 09:23:01;;;;;;;10.53;2.83;;;;;;;;;;5051467;28;20056;-60
2023/05/17 09:25:28;;;;;;;12.57;3.00;;;;;;;;;;5069245;28;20044;-60
2023/05/17 09:27:56;;;;;;;12.03;3.13;;;;;;;;;;5071462;28;20047;-60
2023/05/17 09:30:29;;;;;;;11.50;2.80;;;;;;;;;;5071151;28;20045;-60
2023/05/17 09:32:56;;;;;;;10.38;2.83;;;;;;;;;;5071357;28;20078;-60
2023/05/17 09:35:30;;;;;;;11.67;2.60;;;;;;;;;;5070690;28;20452;-60
2023/05/17 09:38:12;;;;;;;9.50;2.50;;;;;;;;;;5053934;28;20507;-60
2023/05/17 09:40:42;;;;;;;14.10;2.50;;;;;;;;;;5050770;28;20053;-61
2023/05/17 09:43:08;;;;;;;10.13;2.30;;;;;;;;;;5049888;28;20040;-60
2023/05/17 09:45:35;;;;;;;13.33;2.27;;;;;;;;;;5056048;28;20049;-60
2023/05/17 09:48:17;;;;;;;9.27;1.97;;;;;;;;;;5058883;28;20040;-61
2023/05/17 09:50:44;;;;;;;10.40;2.93;;;;;;;;;;5059309;28;20041;-61
2023/05/17 09:53:23;;;;;;;8.73;2.40;;;;;;;;;;5054022;28;20048;-60
2023/05/17 09:55:51;;;;;;;7.20;1.93;;;;;;;;;;5056448;28;20132;-61
2023/05/17 09:58:17;;;;;;;8.03;2.43;;;;;;;;;;5056639;28;20048;-61
2023/05/17 10:00:43;;;;;;;21.40;6.17;;;;;;;;;;5058290;28;20116;-62
2023/05/17 10:03:11;;;;;;;9.43;2.47;;;;;;;;;;5059048;28;20522;-61
2023/05/17 10:05:39;;;;;;;10.63;3.47;;;;;;;;;;5068673;28;20040;-61
2023/05/17 10:08:05;;;;;;;9.83;2.27;;;;;;;;;;5068769;28;20392;-61
2023/05/17 10:10:32;;;;;;;10.60;2.20;;;;;;;;;;5070380;28;20052;-60
2023/05/17 10:13:00;;;;;;;7.90;1.90;;;;;;;;;;5070321;28;20048;-61
2023/05/17 10:15:27;;;;;;;12.97;2.30;;;;;;;;;;5070181;28;20048;-61
2023/05/17 10:17:54;;;;;;;9.20;2.33;;;;;;;;;;5070163;28;20418;-60
2023/05/17 10:20:20;;;;;;;14.57;3.17;;;;;;;;;;5070016;28;20036;-61
2023/05/17 10:22:47;;;;;;;14.20;3.60;;;;;;;;;;5063955;28;20037;-61
2023/05/17 10:25:13;;;;;;;8.07;2.40;;;;;;;;;;5058329;28;20047;-61
2023/05/17 10:27:40;;;;;;;14.23;2.70;;;;;;;;;;5059998;28;20131;-61
2023/05/17 10:30:08;;;;;;;7.97;2.33;;;;;;;;;;5059013;28;20044;-61
2023/05/17 10:32:35;;;;;;;9.33;2.93;;;;;;;;;;5057651;28;20461;-62
2023/05/17 10:35:03;;;;;;;14.80;2.87;;;;;;;;;;5049967;28;20048;-60
2023/05/17 10:37:30;;;;;;;9.77;2.67;;;;;;;;;;5050500;28;20044;-61
2023/05/17 10:39:57;;;;;;;10.43;2.70;;;;;;;;;;5057228;28;20032;-61
2023/05/17 10:42:23;;;;;;;14.13;3.03;;;;;;;;;;5055633;28;20060;-61
2023/05/17 10:44:52;;;;;;;9.30;2.43;;;;;;;;;;5057936;28;20037;-61
2023/05/17 10:47:18;;;;;;;15.23;2.80;;;;;;;;;;5054010;28;20068;-60
2023/05/17 10:49:46;;;;;;;10.97;2.63;;;;;;;;;;5057825;28;20145;-60
2023/05/17 10:52:12;;;;;;;10.50;3.10;;;;;;;;;;5057750;28;20127;-61
2023/05/17 10:54:41;;;;;;;8.30;2.17;;;;;;;;;;5053695;28;20056;-60
2023/05/17 10:57:07;;;;;;;12.37;2.80;;;;;;;;;;5055891;28;20048;-61
2023/05/17 10:59:34;;;;;;;12.80;3.13;;;;;;;;;;5056774;28;20334;-60
2023/05/17 11:02:07;;;;;;;11.03;3.13;;;;;;;;;;5055868;28;20604;-61
2023/05/17 11:04:33;;;;;;;;;;;;;;;;;;5055316;28;20048;-60
2023/05/17 11:07:18;;;;;;;12.50;2.20;;;;;;;;;;5057043;28;20316;-61
2023/05/17 11:09:45;;;;;;;11.37;2.33;;;;;;;;;;5054756;28;20051;-62
2023/05/17 11:12:11;;;;;;;7.23;1.93;;;;;;;;;;5053278;28;20507;-61
2023/05/17 11:14:48;;;;;;;10.63;2.17;;;;;;;;;;5053733;28;20040;-60
2023/05/17 11:17:14;;;;;;;7.13;2.40;;;;;;;;;;5059309;28;20115;-60
2023/05/17 11:19:59;;;;;;;7.63;1.90;;;;;;;;;;5068262;28;20052;-61
2023/05/17 11:22:26;;;;;;;9.50;2.30;;;;;;;;;;5067790;28;20132;-60
2023/05/17 11:24:53;;;;;;;8.57;2.30;;;;;;;;;;5068870;28;20044;-61
2023/05/17 11:27:26;;;;;;;8.37;2.10;;;;;;;;;;5068013;28;20151;-61
2023/05/17 11:29:52;;;;;;;11.07;2.35;;;;;;;;;;5067833;28;20088;-60
2023/05/17 11:32:18;;;;;;;9.57;2.20;;;;;;;;;;5059316;28;20045;-61
2023/05/17 11:34:50;;;;;;;6.10;1.70;;;;;;;;;;5056887;28;20070;-61
2023/05/17 11:37:25;;;;;;;7.97;2.00;;;;;;;;;;5056925;28;20041;-61
2023/05/17 11:40:03;;;;;;;10.00;2.80;;;;;;;;;;5056324;28;20040;-61
2023/05/17 11:42:29;;;;;;;10.87;2.10;;;;;;;;;;5054799;28;20048;-61
2023/05/17 11:45:00;;;;;;;9.73;1.73;;;;;;;;;;5055309;28;20048;-61
2023/05/17 11:47:26;;;;;;;9.33;2.50;;;;;;;;;;5050587;28;20421;-62
2023/05/17 11:49:53;;;;;;;8.13;2.33;;;;;;;;;;5053850;28;20156;-62
2023/05/17 11:52:19;;;;;;;7.60;1.60;;;;;;;;;;5055829;28;20175;-61
2023/05/17 11:54:46;;;;;;;7.67;2.23;;;;;;;;;;5056880;28;20045;-61
2023/05/17 11:57:16;;;;;;;8.33;2.17;;;;;;;;;;5054457;28;20048;-61
2023/05/17 11:59:43;;;;;;;5.97;1.70;;;;;;;;;;5052695;28;20143;-61
2023/05/17 12:02:09;;;;;;;7.80;1.93;;;;;;;;;;5053239;28;20040;-60
2023/05/17 12:04:36;;;;;;;6.40;2.00;;;;;;;;;;5062835;28;20036;-61
2023/05/17 12:07:02;;;;;;;8.03;2.13;;;;;;;;;;5062886;28;20143;-61
2023/05/17 12:09:29;;;;;;;7.57;1.77;;;;;;;;;;5062486;28;20128;-61
2023/05/17 12:11:55;;;;;;;10.43;2.60;;;;;;;;;;5061984;28;20052;-61
2023/05/17 12:14:22;;;;;;;6.88;1.85;;;;;;;;;;5062749;28;20059;-62
2023/05/17 12:16:52;;;;;;;5.97;1.58;;;;;;;;;;5061108;28;20757;-61
2023/05/17 12:19:19;;;;;;;8.02;2.53;;;;;;;;;;5055939;28;20048;-61
2023/05/17 12:21:45;;;;;;;8.40;2.42;;;;;;;;;;5058787;28;20053;-60
2023/05/17 12:24:11;;;;;;;6.93;2.10;;;;;;;;;;5071808;28;20041;-61
2023/05/17 12:26:47;;;;;;;9.07;2.40;;;;;;;;;;5068499;28;20407;-62
2023/05/17 12:29:14;;;;;;;8.57;2.00;;;;;;;;;;5051992;28;20047;-62
2023/05/17 12:31:42;;;;;;;7.68;2.53;;;;;;;;;;5051298;28;20135;-62
2023/05/17 12:34:11;;;;;;;7.13;1.92;;;;;;;;;;5050757;28;20178;-62
2023/05/17 12:36:37;;;;;;;7.40;1.92;;;;;;;;;;5051377;28;20514;-62
2023/05/17 12:39:08;;;;;;;9.63;2.63;;;;;;;;;;5051511;28;20068;-61
2023/05/17 12:41:34;;;;;;;9.13;2.33;;;;;;;;;;5051831;28;20419;-62
2023/05/17 12:44:00;;;;;;;6.15;2.10;;;;;;;;;;5051590;28;20064;-61
2023/05/17 12:46:27;;;;;;;12.00;2.25;;;;;;;;;;5059103;28;20048;-61
2023/05/17 12:48:54;;;;;;;7.75;2.35;;;;;;;;;;5071104;28;20051;-61
2023/05/17 12:51:21;;;;;;;7.97;2.42;;;;;;;;;;5061389;28;20457;-61
2023/05/17 12:53:53;;;;;;;10.38;2.33;;;;;;;;;;5060809;28;20040;-60
2023/05/17 12:56:21;;;;;;;8.25;2.55;;;;;;;;;;5061519;28;20128;-61
2023/05/17 12:59:05;;;;;;;7.78;1.95;;;;;;;;;;5059909;28;20045;-61
2023/05/17 13:01:36;;;;;;;8.35;2.00;;;;;;;;;;5057223;28;20047;-61
2023/05/17 13:04:02;;;;;;;6.95;1.90;;;;;;;;;;5064772;28;20044;-61
2023/05/17 13:06:29;;;;;;;7.32;1.77;;;;;;;;;;5063757;28;20095;-61
2023/05/17 13:09:01;;;;;;;7.35;1.88;;;;;;;;;;5058260;28;20049;-62
2023/05/17 13:11:27;;;;;;;8.07;2.70;;;;;;;;;;5060904;28;20520;-61
2023/05/17 13:13:53;;;;;;;8.13;2.30;;;;;;;;;;5057378;28;20044;-62
2023/05/17 13:16:29;;;;;;;6.45;2.35;;;;;;;;;;5056221;28;20496;-61
2023/05/17 13:18:55;;;;;;;10.52;2.05;;;;;;;;;;5057321;28;20056;-61
2023/05/17 13:21:21;;;;;;;11.30;2.58;;;;;;;;;;5060629;28;20490;-61
2023/05/17 13:23:48;;;;;;;10.20;2.40;;;;;;;;;;5056460;28;20215;-61
2023/05/17 13:26:18;;;;;;;7.28;2.58;;;;;;;;;;5056533;28;20455;-61
2023/05/17 13:28:44;;;;;;;9.07;2.35;;;;;;;;;;5057636;28;20053;-61
2023/05/17 13:31:11;;;;;;;7.22;1.92;;;;;;;;;;5058887;28;20060;-60
2023/05/17 13:33:37;;;;;;;9.05;3.20;;;;;;;;;;5057376;28;20479;-61
2023/05/17 13:36:04;;;;;;;9.98;2.38;;;;;;;;;;5058431;28;20044;-61
2023/05/17 13:38:30;;;;;;;9.63;2.53;;;;;;;;;;5058962;28;20037;-61
2023/05/17 13:40:56;;;;;;;11.10;2.42;;;;;;;;;;5058609;28;20076;-61
2023/05/17 13:43:22;;;;;;;9.02;2.35;;;;;;;;;;5061797;28;20056;-61
2023/05/17 13:45:53;;;;;;;9.32;2.63;;;;;;;;;;5058022;28;20076;-60
2023/05/17 13:48:19;;;;;;;10.85;2.67;;;;;;;;;;5059318;28;20053;-61
2023/05/17 13:50:45;;;;;;;8.68;2.15;;;;;;;;;;5057793;28;20514;-62
2023/05/17 13:53:11;;;;;;;9.82;2.13;;;;;;;;;;5059434;28;20044;-62
2023/05/17 13:55:38;;;;;;;8.40;2.58;;;;;;;;;;5060054;28;20083;-61
2023/05/17 13:58:04;;;;;;;6.20;1.83;;;;;;;;;;5060270;28;20052;-62
2023/05/17 14:00:30;;;;;;;11.30;2.55;;;;;;;;;;5056900;28;20039;-62
2023/05/17 14:02:56;;;;;;;11.07;3.10;;;;;;;;;;5058625;28;20106;-62
2023/05/17 14:05:23;;;;;;;11.55;2.67;;;;;;;;;;5059897;28;20419;-62
2023/05/17 14:07:50;;;;;;;8.75;2.38;;;;;;;;;;5054917;28;20120;-62
2023/05/17 14:10:16;;;;;;;12.65;2.70;;;;;;;;;;5058507;28;20101;-62
2023/05/17 14:12:42;;;;;;;14.27;2.60;;;;;;;;;;5059046;28;20487;-62
2023/05/17 14:15:09;;;;;;;9.70;2.58;;;;;;;;;;5056903;28;20140;-62
2023/05/17 14:17:35;;;;;;;6.82;2.20;;;;;;;;;;5057382;28;20542;-62
2023/05/17 14:20:02;;;;;;;9.80;2.53;;;;;;;;;;5057153;28;20044;-62
2023/05/17 14:22:28;;;;;;;9.90;2.50;;;;;;;;;;5054966;28;20131;-62
2023/05/17 14:24:54;;;;;;;10.15;2.60;;;;;;;;;;5056237;28;20045;-62
2023/05/17 14:27:20;;;;;;;6.07;1.77;;;;;;;;;;5055617;28;20167;-62
2023/05/17 14:29:47;;;;;;;11.52;2.42;;;;;;;;;;5058408;28;20045;-62
2023/05/17 14:32:13;;;;;;;7.95;2.38;;;;;;;;;;5058441;28;20048;-61
2023/05/17 14:34:39;;;;;;;9.15;2.40;;;;;;;;;;5056795;28;20730;-62